Flight Track Log - Related Links

Times and Time Zones

All times are in EDT time to prevent confusion due to time zone crossing. See the N500CD flight status page for this flight to view local times or setup timezone preferences in your user account.

Time Position Orientation Groundspeed Altitude Reporting Facility
EDT Latitude Longitude Course Direction KTS MPH feet Rate Location/Type
Fri 07:59:46 29.6867 -82.2900 240° Southwest 128 147 500  Level Jacksonville Center
Fri 08:00:28 29.6722 -82.3189 240° Southwest 157 181 1,700 1,615 Climbing Jacksonville Center
Fri 08:01:04 29.6933 -82.3450 313° West 186 214 2,600 1,938 Climbing Jacksonville Center
Fri 08:02:04 29.7411 -82.3281 17° North 201 231 4,800 2,150 Climbing Jacksonville Center
Fri 08:03:04 29.7892 -82.3206 North 201 231 6,900 2,000 Climbing Jacksonville Center
Fri 08:04:04 29.8392 -82.3156 North 191 220 8,800 1,850 Climbing Jacksonville Center
Fri 08:05:04 29.8914 -82.3033 11° North 191 220 10,600 1,800 Climbing Jacksonville Center
Fri 08:06:04 29.9456 -82.2933 North 191 220 12,400 1,700 Climbing Jacksonville Center
Fri 08:07:04 29.9958 -82.2811 12° North 186 214 14,000 1,500 Climbing Jacksonville Center
Fri 08:08:04 30.0478 -82.2686 12° North 181 208 15,400 1,450 Climbing Jacksonville Center
Fri 08:09:04 30.1019 -82.2539 13° North 181 208 16,900 1,400 Climbing Jacksonville Center
Fri 08:10:04 30.1542 -82.2417 11° North 181 208 18,200 1,300 Climbing Jacksonville Center
Fri 08:11:04 30.2064 -82.2317 North 181 208 19,500 1,250 Climbing Jacksonville Center
Fri 08:12:04 30.2606 -82.2192 11° North 181 208 20,700 1,200 Climbing Jacksonville Center
Fri 08:13:04 30.3106 -82.2092 10° North 181 208 21,900 1,200 Climbing Jacksonville Center
Fri 08:14:04 30.3647 -82.1944 13° North 186 214 23,100 1,200 Climbing Jacksonville Center
Fri 08:15:04 30.4211 -82.1819 11° North 191 220 24,300 1,200 Climbing Jacksonville Center
Fri 08:16:04 30.4775 -82.1719 North 197 227 25,500 1,150 Climbing Jacksonville Center
Fri 08:17:04 30.5336 -82.1594 11° North 202 232 26,600 1,200 Climbing Jacksonville Center
Fri 08:18:04 30.6006 -82.1492 North 202 232 27,900 1,300 Climbing Jacksonville Center
Fri 08:19:04 30.6608 -82.1342 12° North 207 238 29,200 1,150 Climbing Jacksonville Center
Fri 08:20:04 30.7214 -82.1217 10° North 207 238 30,200 950 Climbing Jacksonville Center
Fri 08:21:04 30.7797 -82.1092 10° North 212 244 31,100 950 Climbing Jacksonville Center
Fri 08:22:04 30.8425 -82.0964 10° North 217 250 32,100 900 Climbing Jacksonville Center
Fri 08:23:04 30.9069 -82.0814 11° North 222 255 32,900 850 Climbing Jacksonville Center
Fri 08:24:04 30.9717 -82.0689 North 222 255 33,800 850 Climbing Jacksonville Center
Fri 08:25:04 31.0342 -82.0536 12° North 222 255 34,600 600 Climbing Jacksonville Center
Fri 08:26:04 31.0967 -82.0411 10° North 222 255 35,000 200 Climbing Jacksonville Center
Fri 08:27:04 31.1675 -82.0233 12° North 233 268 35,000  Level Jacksonville Center
Fri 08:28:04 31.2447 -82.0056 11° North 282 325 35,000 650 Level Jacksonville Center
Fri 08:29:04 31.3178 -81.9903 10° North 264 304 36,300 1,000 Climbing Jacksonville Center
Fri 08:30:04 31.3822 -81.9750 11° North 249 287 37,000 350 Climbing Jacksonville Center
Fri 08:31:04 31.4428 -81.9575 14° North 235 270 37,000  Level Jacksonville Center
Fri 08:32:04 31.5242 -81.9397 11° North 258 297 37,000  Level Jacksonville Center
Fri 08:33:04 31.5992 -81.9242 10° North 268 308 37,000  Level Jacksonville Center
Fri 08:34:04 31.6719 -81.9064 12° North 281 323 37,000  Level Jacksonville Center
Fri 08:35:04 31.7597 -81.8883 10° North 287 330 37,000  Level Jacksonville Center
Fri 08:36:04 31.8325 -81.8706 12° North 293 337 37,000  Level Jacksonville Center
Fri 08:37:04 31.9242 -81.8497 11° North 293 337 37,000  Level Jacksonville Center
Fri 08:38:04 32.0075 -81.8317 10° North 293 337 37,000  Level Jacksonville Center
Fri 08:39:04 32.0825 -81.8136 12° North 298 343 37,000  Level Jacksonville Center
Fri 08:40:04 32.1764 -81.7931 10° North 298 343 37,000  Level Jacksonville Center
Fri 08:41:04 32.2597 -81.7772 North 305 351 37,000  Level Jacksonville Center
Fri 08:42:04 32.3347 -81.7592 11° North 312 359 37,000  Level Jacksonville Center
Fri 08:43:04 32.4306 -81.7381 11° North 312 359 37,000  Level Jacksonville Center
Fri 08:44:04 32.5078 -81.7200 11° North 314 361 37,000  Level Jacksonville Center
Fri 08:45:04 32.5994 -81.6992 11° North 314 361 37,000  Level Jacksonville Center
Fri 08:46:04 32.6869 -81.6806 10° North 314 361 37,000  Level Jacksonville Center
Fri 08:47:04 32.7722 -81.6547 14° North 314 361 37,000  Level Jacksonville Center
Fri 08:48:04 32.8575 -81.6389 North 314 361 37,000  Level Jacksonville Center
Fri 08:49:04 32.9472 -81.6178 11° North 314 361 37,000  Level Jacksonville Center
Fri 08:50:04 33.0306 -81.5992 11° North 314 361 37,000  Level Jacksonville Center
Fri 08:51:04 33.1136 -81.5781 12° North 314 361 37,000  Level Jacksonville Center
Fri 08:52:04 33.2011 -81.5569 11° North 314 361 37,000  Level Jacksonville Center
Fri 08:53:04 33.2906 -81.5308 14° North 314 361 37,000  Level Jacksonville Center
Fri 08:54:04 33.3739 -81.5147 North 314 361 37,000  Level Jacksonville Center
Fri 08:55:04 33.4614 -81.4933 12° North 314 361 37,000  Level Jacksonville Center
Fri 08:56:04 33.5467 -81.4722 12° North 314 361 37,000  Level Jacksonville Center
Fri 08:57:04 33.6361 -81.4531 10° North 314 361 37,000  Level Jacksonville Center
Fri 08:58:04 33.7194 -81.4319 12° North 314 361 37,000  Level Jacksonville Center
Fri 08:59:04 33.8069 -81.4128 10° North 314 361 37,000  Level Jacksonville Center
Fri 09:00:04 33.8922 -81.3914 12° North 314 361 37,000  Level Jacksonville Center
Fri 09:02:17 34.0819 -81.3450 11° North 312 359 37,000  Level Atlanta Center
Fri 09:03:17 34.1608 -81.3275 10° North 318 366 37,000  Level Atlanta Center
Fri 09:04:17 34.2481 -81.3047 12° North 313 360 37,000  Level Atlanta Center
Fri 09:05:17 34.3372 -81.2842 11° North 313 360 37,000  Level Atlanta Center
Fri 09:06:17 34.4328 -81.2658 North 313 360 37,000  Level Atlanta Center
Fri 09:07:17 34.5200 -81.2428 12° North 313 360 37,000 -200 Level Atlanta Center
Fri 09:08:17 34.6092 -81.2222 11° North 318 366 36,600 -650 Descending Atlanta Center
Fri 09:09:17 34.6964 -81.1992 12° North 323 372 35,700 -950 Descending Atlanta Center
Fri 09:10:17 34.7897 -81.1758 12° North 330 380 34,700 -1,000 Descending Atlanta Center
Fri 09:11:17 34.8811 -81.1547 11° North 330 380 33,700 -850 Descending Atlanta Center
Fri 09:12:17 34.9767 -81.1339 10° North 335 386 33,000 -350 Descending Atlanta Center
Fri 09:13:17 35.0656 -81.1078 14° North 335 386 33,000  Level Atlanta Center
Fri 09:14:17 35.1589 -81.0842 12° North 335 386 33,000  Level Atlanta Center
Fri 09:15:17 35.2378 -81.0661 11° North 330 380 33,000  Level Atlanta Center
Fri 09:16:17 35.3292 -81.0400 13° North 335 386 33,000  Level Atlanta Center
Fri 09:17:17 35.4203 -81.0189 11° North 330 380 33,000  Level Atlanta Center
Fri 09:18:17 35.5114 -80.9950 12° North 330 380 33,000 -500 Level Atlanta Center
Fri 09:19:17 35.6047 -80.9686 13° North 335 386 32,000 -1,250 Descending Atlanta Center
Fri 09:20:17 35.7003 -80.9472 10° North 335 386 30,500 -1,500 Descending Atlanta Center
Fri 09:21:17 35.7914 -80.9231 12° North 335 386 29,000 -1,450 Descending Atlanta Center
Fri 09:22:17 35.8867 -80.9017 10° North 335 386 27,600 -1,450 Descending Atlanta Center
Fri 09:23:17 35.9800 -80.8775 12° North 335 386 26,100 -1,500 Descending Atlanta Center
Fri 09:24:17 36.0794 -80.8556 10° North 347 399 24,600 -1,550 Descending Atlanta Center
Fri 09:25:17 36.1728 -80.8286 13° North 354 407 23,000 -1,550 Descending Atlanta Center
Fri 09:26:17 36.2700 -80.8042 11° North 354 407 21,500 -1,500 Descending Atlanta Center
Fri 09:27:17 36.3758 -80.7767 12° North 354 407 20,000 -1,250 Descending Atlanta Center
Fri 09:28:17 36.4711 -80.7522 12° North 354 407 19,000 -500 Descending Atlanta Center
Fri 09:29:17 36.5600 -80.7306 11° North 342 394 19,000 -50 Level Atlanta Center
Fri 09:30:17 36.6469 -80.7061 13° North 327 376 18,900 -750 Descending Atlanta Center
Fri 09:31:17 36.7381 -80.6817 12° North 322 371 17,500 -1,450 Descending Atlanta Center
Fri 09:32:17 36.8189 -80.6628 11° North 327 376 16,000 -1,800 Descending Atlanta Center
Fri 09:33:17 36.9286 -80.6372 11° North 345 397 13,900 -1,655 Descending Atlanta Center
Fri 09:35:11 37.0947 -80.5967 11° North 350 403 11,200 -960 Descending Washington Center
Fri 09:36:12 37.1833 -80.5739 12° North 337 388 11,100 -49 Descending Washington Center
Fri 09:37:13 37.2675 -80.5531 11° North 316 364 11,100  Level Washington Center
Fri 09:38:12 37.3625 -80.5281 12° North 316 364 11,100 -605 Level Washington Center
Fri 09:39:12 37.4467 -80.5072 11° North 316 364 9,900 -1,438 Descending Washington Center
Fri 09:40:13 37.5206 -80.4858 13° North 292 336 8,200 -1,815 Descending Washington Center
Fri 09:41:11 37.5881 -80.4692 11° North 265 305 6,300 -1,563 Descending Washington Center
Fri 09:42:12 37.6492 -80.4522 12° North 250 288 5,100 -885 Descending Washington Center
Fri 09:43:13 37.7103 -80.4403 North 230 265 4,500 -645 Descending Washington Center
Fri 09:44:13 37.7644 -80.4439 357° North 215 247 3,800 -610 Descending Washington Center
Fri 09:45:11 37.8083 -80.4389 North 183 211 3,300 -517 Descending Washington Center

Login

Don't have an account? Register now (free) for customized features, flight alerts, and more!